createdAt,value
2023-01-31T00:06:40.287Z,95.71
2023-01-31T00:16:44.264Z,95.39
2023-01-31T00:26:48.519Z,94.46
2023-01-31T00:36:52.567Z,94.07
2023-01-31T00:46:55.219Z,93.69
2023-01-31T00:56:59.257Z,93.27
2023-01-31T01:07:02.002Z,92.63
2023-01-31T01:17:06.053Z,92.35
2023-01-31T01:27:08.676Z,92.34
2023-01-31T01:37:20.069Z,92.92
2023-01-31T01:47:36.370Z,93.83
2023-01-31T01:57:42.814Z,94.05
2023-01-31T02:07:45.535Z,94.83
2023-01-31T02:17:49.711Z,94.95
2023-01-31T02:28:34.159Z,94.41
2023-01-31T02:38:52.517Z,94.11
2023-01-31T02:49:00.893Z,94.22
2023-01-31T02:59:09.693Z,94.15
2023-01-31T03:09:22.272Z,93.82
2023-01-31T03:19:32.868Z,93.61
2023-01-31T03:29:38.652Z,94.39
2023-01-31T03:39:47.820Z,94.50
2023-01-31T03:49:52.504Z,94.27
2023-01-31T03:59:59.263Z,94.04
2023-01-31T04:10:02.049Z,93.96
2023-01-31T04:20:07.491Z,93.52
2023-01-31T04:30:11.904Z,93.47
2023-01-31T04:40:15.988Z,93.78
2023-01-31T04:50:18.897Z,93.62
2023-01-31T05:00:23.375Z,93.78
2023-01-31T05:10:26.047Z,93.89
2023-01-31T05:20:31.362Z,93.92
2023-01-31T05:30:34.158Z,94.14
2023-01-31T05:40:38.911Z,94.65
2023-01-31T05:50:41.554Z,94.90
2023-01-31T06:00:45.813Z,95.44
2023-01-31T06:10:48.475Z,95.75
2023-01-31T06:20:52.561Z,94.96
2023-01-31T06:30:55.528Z,95.91
2023-01-31T06:40:59.693Z,96.58
2023-01-31T06:51:02.767Z,96.76
2023-01-31T07:01:08.067Z,96.61
2023-01-31T07:11:10.969Z,97.37
2023-01-31T07:21:15.016Z,96.27
2023-01-31T07:31:17.656Z,96.79
2023-01-31T07:41:21.664Z,97.86
2023-01-31T07:51:24.397Z,96.68
2023-01-31T08:01:49.164Z,96.39
2023-01-31T08:11:53.344Z,96.26
2023-01-31T08:21:57.434Z,95.84
2023-01-31T08:32:00.760Z,96.42
2023-01-31T08:42:05.033Z,96.65
2023-01-31T08:52:07.877Z,96.35
2023-01-31T09:02:12.541Z,96.17
2023-01-31T09:12:15.163Z,96.03
2023-01-31T09:22:20.454Z,96.07
2023-01-31T09:32:23.749Z,95.88
2023-01-31T09:42:32.043Z,95.47
2023-01-31T09:52:35.221Z,96.66
2023-01-31T10:03:09.306Z,95.73
2023-01-31T10:13:18.336Z,95.40
2023-01-31T10:23:28.002Z,95.07
2023-01-31T10:33:39.381Z,94.72
2023-01-31T10:43:50.353Z,97.89
2023-01-31T10:54:08.104Z,101.63
2023-01-31T11:04:28.849Z,103.28
2023-01-31T11:14:31.920Z,103.47
2023-01-31T11:24:41.247Z,104.47
2023-01-31T11:34:56.874Z,105.89
2023-01-31T11:45:03.484Z,106.18
2023-01-31T11:55:09.159Z,106.79
2023-01-31T12:05:16.417Z,107.14
2023-01-31T12:15:19.255Z,107.33
2023-01-31T12:25:44.353Z,107.80
2023-01-31T12:36:05.799Z,107.47
2023-01-31T12:46:18.682Z,106.88
2023-01-31T12:56:56.718Z,105.64
2023-01-31T13:07:04.056Z,105.54
2023-01-31T13:17:11.808Z,104.58
2023-01-31T13:27:20.984Z,104.18
2023-01-31T13:37:25.970Z,103.46
2023-01-31T13:47:33.496Z,102.31
2023-01-31T13:57:45.353Z,100.98
2023-01-31T14:08:33.309Z,99.43
2023-01-31T14:18:41.207Z,98.06
2023-01-31T14:28:45.534Z,93.18
2023-01-31T14:39:11.869Z,90.87
2023-01-31T14:49:44.178Z,89.76
2023-01-31T14:59:57.192Z,88.39
2023-01-31T15:10:01.282Z,89.48
2023-01-31T15:20:14.591Z,87.60
2023-01-31T15:30:22.245Z,87.44
2023-01-31T15:40:28.623Z,88.12
2023-01-31T15:50:34.710Z,88.96
2023-01-31T16:00:39.137Z,87.77
2023-01-31T16:10:45.537Z,86.08
2023-01-31T16:20:49.998Z,85.55
2023-01-31T16:30:54.142Z,86.47
2023-01-31T16:41:00.723Z,86.79
2023-01-31T16:51:41.872Z,87.30
2023-01-31T17:01:44.980Z,84.39
2023-01-31T17:11:49.260Z,85.54
2023-01-31T17:21:51.902Z,84.02
2023-01-31T17:31:55.873Z,79.18
2023-01-31T17:41:58.532Z,79.76
2023-01-31T17:52:02.887Z,78.50
2023-01-31T18:02:10.344Z,80.01
2023-01-31T18:12:14.306Z,80.44
2023-01-31T18:22:17.756Z,81.14
2023-01-31T18:32:21.853Z,80.43
2023-01-31T18:42:24.494Z,79.33
2023-01-31T18:52:29.849Z,79.26
2023-01-31T19:02:32.540Z,78.71
2023-01-31T19:12:39.048Z,79.11
2023-01-31T19:22:41.737Z,79.11
2023-01-31T19:32:45.756Z,79.74
2023-01-31T19:42:48.408Z,80.94
2023-01-31T19:52:52.523Z,82.45
2023-01-31T20:02:55.166Z,83.42
2023-01-31T20:13:02.403Z,82.42
2023-01-31T20:23:05.452Z,84.10
2023-01-31T20:33:09.770Z,83.12
2023-01-31T20:43:12.373Z,82.39
2023-01-31T20:53:20.240Z,82.38
2023-01-31T21:03:24.235Z,82.99
2023-01-31T21:13:30.020Z,81.93
2023-01-31T21:23:32.693Z,81.97
2023-01-31T21:33:37.172Z,83.10
2023-01-31T21:43:41.311Z,82.37
2023-01-31T21:53:46.210Z,82.68
2023-01-31T22:03:50.386Z,83.62
2023-01-31T22:13:56.244Z,83.28
2023-01-31T22:24:00.985Z,83.45
2023-01-31T22:34:06.211Z,83.58
2023-01-31T22:44:08.857Z,83.95
2023-01-31T22:54:14.602Z,83.99
2023-01-31T23:04:19.109Z,83.57
2023-01-31T23:14:23.193Z,83.61
2023-01-31T23:24:25.872Z,82.86
2023-01-31T23:34:29.838Z,83.20
2023-01-31T23:44:32.731Z,82.56
2023-01-31T23:54:37.032Z,82.33
